Portada
METAR-TAF:

METAR-TAF

Aeropuertos :

Piggs Peak, Suazilandia

latitud: 25-58-04S, longitud: 31-15-03E, altitud: 1099 m

Observación

El informe se hizo hace 41 minutos, a las 04:00 UTC
Viento 8 kt del norte-noreste
Temperatura 6°C
Humedad 56%
Presión 1026 hPa

METAR: FDPP 280400Z AUTO 03008KT //// // ////// 06/M02 Q1026

Hora: 06:41 (04:41 UTC)


TAF: falta

Observaciones y pronósticos meteorológicos de más de 4000 aeropuertos (mensajes METAR y TAF).

Los puntos amarillos y rojos representan las estaciones disponibles.

Ponga el ratón en el punto deseado para ver el nombre de la estación.

Haga clic para ver las observaciones y los pronósticos meteorológicos.

Para cambiar el mapa : haga clic en los botones verdes con una cruz de color negro para hacer un zoom, en el botón verde con un guión para alejar o en las flechas verdes para mapas adyacentes.


METAR-TAF: